sensor_id;sensor_type;location;lat;lon;timestamp;pressure;altitude;pressure_sealevel;temperature;humidity
58757;BME280;44527;47.460;19.016;2023-07-20T00:01:58;99579.81;;;23.49;70.34
58757;BME280;44527;47.460;19.016;2023-07-20T00:05:00;99581.44;;;23.30;71.18
58757;BME280;44527;47.460;19.016;2023-07-20T00:08:03;99587.34;;;23.06;72.75
58757;BME280;44527;47.460;19.016;2023-07-20T00:11:06;99585.75;;;23.25;71.35
58757;BME280;44527;47.460;19.016;2023-07-20T00:14:08;99580.38;;;23.25;71.79
58757;BME280;44527;47.460;19.016;2023-07-20T00:17:10;99573.56;;;23.22;70.68
58757;BME280;44527;47.460;19.016;2023-07-20T00:20:13;99583.47;;;23.22;71.08
58757;BME280;44527;47.460;19.016;2023-07-20T00:23:15;99569.41;;;23.00;72.25
58757;BME280;44527;47.460;19.016;2023-07-20T00:26:18;99565.28;;;23.04;72.05
58757;BME280;44527;47.460;19.016;2023-07-20T00:29:23;99584.44;;;23.07;71.95
58757;BME280;44527;47.460;19.016;2023-07-20T00:32:26;99562.84;;;23.02;72.14
58757;BME280;44527;47.460;19.016;2023-07-20T00:35:28;99578.38;;;22.92;72.41
58757;BME280;44527;47.460;19.016;2023-07-20T00:38:30;99584.41;;;22.94;72.82
58757;BME280;44527;47.460;19.016;2023-07-20T00:41:33;99594.66;;;22.90;72.79
58757;BME280;44527;47.460;19.016;2023-07-20T00:44:37;99597.56;;;22.96;72.68
58757;BME280;44527;47.460;19.016;2023-07-20T00:47:40;99596.91;;;22.87;72.90
58757;BME280;44527;47.460;19.016;2023-07-20T00:50:43;99576.31;;;22.87;73.28
58757;BME280;44527;47.460;19.016;2023-07-20T00:53:46;99573.19;;;22.77;74.15
58757;BME280;44527;47.460;19.016;2023-07-20T00:56:50;99573.56;;;22.74;74.20
58757;BME280;44527;47.460;19.016;2023-07-20T00:59:54;99570.47;;;22.70;74.12
58757;BME280;44527;47.460;19.016;2023-07-20T01:02:58;99559.16;;;22.68;74.45
58757;BME280;44527;47.460;19.016;2023-07-20T01:06:19;99553.59;;;22.70;74.46
58757;BME280;44527;47.460;19.016;2023-07-20T01:09:49;99555.44;;;22.63;75.08
58757;BME280;44527;47.460;19.016;2023-07-20T01:12:55;99548.47;;;22.68;74.94
58757;BME280;44527;47.460;19.016;2023-07-20T01:16:00;99543.31;;;22.67;74.88
58757;BME280;44527;47.460;19.016;2023-07-20T01:19:03;99531.13;;;22.58;75.38
58757;BME280;44527;47.460;19.016;2023-07-20T01:32:33;99534.38;;;22.94;73.45
58757;BME280;44527;47.460;19.016;2023-07-20T01:35:37;99531.72;;;22.94;73.62
58757;BME280;44527;47.460;19.016;2023-07-20T01:38:41;99540.97;;;22.99;73.26
58757;BME280;44527;47.460;19.016;2023-07-20T01:41:44;99543.22;;;22.95;73.58
58757;BME280;44527;47.460;19.016;2023-07-20T01:44:47;99553.06;;;22.88;74.15
58757;BME280;44527;47.460;19.016;2023-07-20T01:47:50;99557.19;;;22.90;73.99
58757;BME280;44527;47.460;19.016;2023-07-20T01:50:52;99559.63;;;22.85;74.29
58757;BME280;44527;47.460;19.016;2023-07-20T01:53:56;99562.94;;;22.81;74.73
58757;BME280;44527;47.460;19.016;2023-07-20T01:56:58;99571.97;;;22.80;74.53
58757;BME280;44527;47.460;19.016;2023-07-20T02:00:01;99573.94;;;22.64;75.33
58757;BME280;44527;47.460;19.016;2023-07-20T02:03:15;99575.25;;;22.75;74.79
58757;BME280;44527;47.460;19.016;2023-07-20T02:06:17;99573.22;;;22.84;74.75
58757;BME280;44527;47.460;19.016;2023-07-20T02:09:20;99582.44;;;22.75;75.06
58757;BME280;44527;47.460;19.016;2023-07-20T02:12:22;99588.63;;;22.75;75.05
58757;BME280;44527;47.460;19.016;2023-07-20T02:15:25;99586.34;;;22.72;75.16
58757;BME280;44527;47.460;19.016;2023-07-20T02:18:28;99585.16;;;22.81;74.68
58757;BME280;44527;47.460;19.016;2023-07-20T02:21:32;99572.84;;;22.93;74.07
58757;BME280;44527;47.460;19.016;2023-07-20T02:24:35;99579.59;;;22.83;74.70
58757;BME280;44527;47.460;19.016;2023-07-20T02:27:38;99589.19;;;22.70;75.25
58757;BME280;44527;47.460;19.016;2023-07-20T02:30:41;99577.72;;;22.77;75.08
58757;BME280;44527;47.460;19.016;2023-07-20T02:33:43;99587.41;;;22.78;75.10
58757;BME280;44527;47.460;19.016;2023-07-20T02:36:46;99592.16;;;22.82;74.37
58757;BME280;44527;47.460;19.016;2023-07-20T02:39:48;99587.81;;;22.75;74.88
58757;BME280;44527;47.460;19.016;2023-07-20T02:42:51;99592.09;;;22.69;75.18
58757;BME280;44527;47.460;19.016;2023-07-20T02:45:53;99587.50;;;22.56;76.08
58757;BME280;44527;47.460;19.016;2023-07-20T02:48:56;99582.56;;;22.60;75.86
58757;BME280;44527;47.460;19.016;2023-07-20T02:51:58;99585.72;;;22.70;75.28
58757;BME280;44527;47.460;19.016;2023-07-20T02:55:03;99585.53;;;22.71;75.17
58757;BME280;44527;47.460;19.016;2023-07-20T02:58:05;99582.63;;;22.73;74.16
58757;BME280;44527;47.460;19.016;2023-07-20T03:01:08;99590.47;;;22.75;73.91
58757;BME280;44527;47.460;19.016;2023-07-20T03:04:12;99588.22;;;22.78;73.51
58757;BME280;44527;47.460;19.016;2023-07-20T03:07:14;99590.69;;;22.80;73.49
58757;BME280;44527;47.460;19.016;2023-07-20T03:10:19;99594.16;;;22.74;73.94
58757;BME280;44527;47.460;19.016;2023-07-20T03:13:21;99598.94;;;22.78;73.88
58757;BME280;44527;47.460;19.016;2023-07-20T03:16:26;99601.12;;;22.68;74.57
58757;BME280;44527;47.460;19.016;2023-07-20T03:19:29;99602.94;;;22.61;74.95
58757;BME280;44527;47.460;19.016;2023-07-20T03:22:31;99604.34;;;22.50;75.02
58757;BME280;44527;47.460;19.016;2023-07-20T03:25:35;99607.81;;;22.51;75.35
58757;BME280;44527;47.460;19.016;2023-07-20T03:28:40;99617.31;;;22.53;75.14
58757;BME280;44527;47.460;19.016;2023-07-20T03:31:44;99619.13;;;22.53;74.91
58757;BME280;44527;47.460;19.016;2023-07-20T03:34:46;99612.09;;;22.45;75.14
58757;BME280;44527;47.460;19.016;2023-07-20T03:37:49;99623.59;;;22.39;74.79
58757;BME280;44527;47.460;19.016;2023-07-20T03:43:54;99638.84;;;22.45;74.36
58757;BME280;44527;47.460;19.016;2023-07-20T03:46:57;99638.47;;;22.48;74.40
58757;BME280;44527;47.460;19.016;2023-07-20T03:50:00;99634.75;;;22.49;73.95
58757;BME280;44527;47.460;19.016;2023-07-20T03:53:02;99653.47;;;22.49;74.48
58757;BME280;44527;47.460;19.016;2023-07-20T03:56:08;99652.28;;;22.58;75.10
58757;BME280;44527;47.460;19.016;2023-07-20T03:59:10;99650.28;;;22.67;74.31
58757;BME280;44527;47.460;19.016;2023-07-20T04:02:13;99646.69;;;22.81;74.24
58757;BME280;44527;47.460;19.016;2023-07-20T04:05:17;99644.84;;;22.88;72.03
58757;BME280;44527;47.460;19.016;2023-07-20T04:08:19;99655.88;;;23.07;74.77
58757;BME280;44527;47.460;19.016;2023-07-20T04:11:21;99651.84;;;23.24;71.41
58757;BME280;44527;47.460;19.016;2023-07-20T04:14:24;99648.97;;;23.26;69.32
58757;BME280;44527;47.460;19.016;2023-07-20T04:17:27;99640.75;;;23.34;67.56
58757;BME280;44527;47.460;19.016;2023-07-20T04:20:29;99646.34;;;23.46;67.68
58757;BME280;44527;47.460;19.016;2023-07-20T04:23:32;99645.53;;;23.52;66.89
58757;BME280;44527;47.460;19.016;2023-07-20T04:26:34;99634.25;;;23.63;66.87
58757;BME280;44527;47.460;19.016;2023-07-20T04:29:38;99634.66;;;23.67;68.52
58757;BME280;44527;47.460;19.016;2023-07-20T04:32:40;99627.69;;;23.72;66.43
58757;BME280;44527;47.460;19.016;2023-07-20T04:35:53;99627.87;;;23.77;67.58
58757;BME280;44527;47.460;19.016;2023-07-20T04:38:57;99634.28;;;23.96;65.00
58757;BME280;44527;47.460;19.016;2023-07-20T04:42:00;99634.69;;;24.26;63.52
58757;BME280;44527;47.460;19.016;2023-07-20T04:45:03;99638.00;;;24.35;60.42
58757;BME280;44527;47.460;19.016;2023-07-20T04:48:11;99640.09;;;25.11;57.14
58757;BME280;44527;47.460;19.016;2023-07-20T04:51:13;99644.81;;;26.24;53.65
58757;BME280;44527;47.460;19.016;2023-07-20T04:54:16;99661.16;;;27.70;51.75
58757;BME280;44527;47.460;19.016;2023-07-20T04:57:19;99648.00;;;29.38;44.84
58757;BME280;44527;47.460;19.016;2023-07-20T05:00:24;99656.81;;;30.58;41.68
58757;BME280;44527;47.460;19.016;2023-07-20T05:03:26;99648.63;;;31.14;39.84
58757;BME280;44527;47.460;19.016;2023-07-20T05:06:29;99660.06;;;31.70;38.67
58757;BME280;44527;47.460;19.016;2023-07-20T05:09:32;99660.19;;;32.45;38.02
58757;BME280;44527;47.460;19.016;2023-07-20T05:12:34;99659.16;;;32.51;37.83
58757;BME280;44527;47.460;19.016;2023-07-20T05:15:37;99657.87;;;33.32;37.73
58757;BME280;44527;47.460;19.016;2023-07-20T05:18:42;99655.81;;;34.00;35.15
58757;BME280;44527;47.460;19.016;2023-07-20T05:21:45;99649.28;;;33.86;34.26
58757;BME280;44527;47.460;19.016;2023-07-20T05:24:47;99660.41;;;33.54;34.43
58757;BME280;44527;47.460;19.016;2023-07-20T05:27:50;99663.41;;;34.49;32.17
58757;BME280;44527;47.460;19.016;2023-07-20T05:30:53;99660.19;;;34.12;33.96
58757;BME280;44527;47.460;19.016;2023-07-20T05:33:55;99666.63;;;33.44;36.29
58757;BME280;44527;47.460;19.016;2023-07-20T05:36:58;99666.47;;;34.12;31.58
58757;BME280;44527;47.460;19.016;2023-07-20T05:40:01;99663.59;;;33.35;35.28
58757;BME280;44527;47.460;19.016;2023-07-20T05:43:04;99669.84;;;33.36;35.41
58757;BME280;44527;47.460;19.016;2023-07-20T05:46:06;99678.69;;;34.45;32.98
58757;BME280;44527;47.460;19.016;2023-07-20T05:49:09;99669.34;;;34.77;31.34
58757;BME280;44527;47.460;19.016;2023-07-20T05:52:12;99673.44;;;36.23;28.35
58757;BME280;44527;47.460;19.016;2023-07-20T05:55:16;99670.84;;;37.14;29.88
58757;BME280;44527;47.460;19.016;2023-07-20T05:58:19;99681.03;;;37.52;27.72
58757;BME280;44527;47.460;19.016;2023-07-20T06:01:22;99676.53;;;37.18;26.37
58757;BME280;44527;47.460;19.016;2023-07-20T06:04:25;99672.38;;;38.29;26.85
58757;BME280;44527;47.460;19.016;2023-07-20T06:07:27;99662.22;;;38.48;24.89
58757;BME280;44527;47.460;19.016;2023-07-20T06:10:33;99681.31;;;38.21;25.00
58757;BME280;44527;47.460;19.016;2023-07-20T06:13:36;99676.94;;;38.80;25.35
58757;BME280;44527;47.460;19.016;2023-07-20T06:16:38;99672.66;;;37.62;25.84
58757;BME280;44527;47.460;19.016;2023-07-20T06:19:41;99688.09;;;38.83;24.89
58757;BME280;44527;47.460;19.016;2023-07-20T06:22:56;99685.66;;;39.37;23.38
58757;BME280;44527;47.460;19.016;2023-07-20T06:26:08;99700.41;;;39.00;23.46
58757;BME280;44527;47.460;19.016;2023-07-20T06:29:10;99705.81;;;39.91;22.98
58757;BME280;44527;47.460;19.016;2023-07-20T06:32:13;99709.31;;;39.47;22.70
58757;BME280;44527;47.460;19.016;2023-07-20T06:35:17;99708.00;;;39.44;22.85
58757;BME280;44527;47.460;19.016;2023-07-20T06:38:20;99715.34;;;39.71;22.82
58757;BME280;44527;47.460;19.016;2023-07-20T06:41:26;99716.19;;;39.94;22.37
58757;BME280;44527;47.460;19.016;2023-07-20T06:44:31;99718.87;;;41.02;21.69
58757;BME280;44527;47.460;19.016;2023-07-20T06:47:34;99724.66;;;40.52;21.63
58757;BME280;44527;47.460;19.016;2023-07-20T06:50:37;99722.06;;;40.78;21.74
58757;BME280;44527;47.460;19.016;2023-07-20T06:53:40;99739.84;;;41.12;21.75
58757;BME280;44527;47.460;19.016;2023-07-20T06:56:42;99741.50;;;41.39;21.69
58757;BME280;44527;47.460;19.016;2023-07-20T06:59:48;99745.47;;;42.07;21.20
58757;BME280;44527;47.460;19.016;2023-07-20T07:02:51;99746.28;;;41.64;20.56
58757;BME280;44527;47.460;19.016;2023-07-20T07:05:55;99742.34;;;41.39;20.25
58757;BME280;44527;47.460;19.016;2023-07-20T07:08:59;99739.56;;;40.82;21.04
58757;BME280;44527;47.460;19.016;2023-07-20T07:12:03;99745.41;;;40.58;22.15
58757;BME280;44527;47.460;19.016;2023-07-20T07:15:07;99744.47;;;40.94;20.60
58757;BME280;44527;47.460;19.016;2023-07-20T07:18:11;99742.25;;;40.42;21.11
58757;BME280;44527;47.460;19.016;2023-07-20T07:21:14;99747.97;;;40.85;20.95
58757;BME280;44527;47.460;19.016;2023-07-20T07:24:17;99750.44;;;40.96;20.87
58757;BME280;44527;47.460;19.016;2023-07-20T07:27:21;99759.03;;;39.59;21.22
58757;BME280;44527;47.460;19.016;2023-07-20T07:30:24;99745.09;;;38.73;21.83
58757;BME280;44527;47.460;19.016;2023-07-20T07:33:27;99738.09;;;38.80;22.09
58757;BME280;44527;47.460;19.016;2023-07-20T07:36:30;99742.13;;;39.66;21.67
58757;BME280;44527;47.460;19.016;2023-07-20T07:39:33;99743.00;;;40.11;21.48
58757;BME280;44527;47.460;19.016;2023-07-20T07:42:37;99752.84;;;40.12;21.72
58757;BME280;44527;47.460;19.016;2023-07-20T07:45:40;99763.28;;;40.47;21.11
58757;BME280;44527;47.460;19.016;2023-07-20T07:48:43;99753.00;;;40.07;20.88
58757;BME280;44527;47.460;19.016;2023-07-20T07:51:46;99754.25;;;39.51;21.92
58757;BME280;44527;47.460;19.016;2023-07-20T07:54:49;99743.31;;;39.37;21.65
58757;BME280;44527;47.460;19.016;2023-07-20T07:57:52;99746.62;;;39.48;21.42
58757;BME280;44527;47.460;19.016;2023-07-20T08:00:55;99726.06;;;38.62;22.02
58757;BME280;44527;47.460;19.016;2023-07-20T08:03:57;99734.16;;;37.69;22.57
58757;BME280;44527;47.460;19.016;2023-07-20T08:07:00;99732.69;;;36.28;24.90
58757;BME280;44527;47.460;19.016;2023-07-20T08:10:03;99741.81;;;35.68;25.38
58757;BME280;44527;47.460;19.016;2023-07-20T08:13:06;99743.56;;;35.94;25.66
58757;BME280;44527;47.460;19.016;2023-07-20T08:16:09;99736.41;;;35.63;25.68
58757;BME280;44527;47.460;19.016;2023-07-20T08:19:11;99750.06;;;35.53;26.30
58757;BME280;44527;47.460;19.016;2023-07-20T08:22:14;99738.66;;;35.96;26.82
58757;BME280;44527;47.460;19.016;2023-07-20T08:25:18;99737.97;;;35.75;26.59
58757;BME280;44527;47.460;19.016;2023-07-20T08:28:20;99733.31;;;35.75;26.35
58757;BME280;44527;47.460;19.016;2023-07-20T08:31:23;99735.03;;;34.91;26.66
58757;BME280;44527;47.460;19.016;2023-07-20T08:34:25;99745.44;;;34.68;27.41
58757;BME280;44527;47.460;19.016;2023-07-20T08:37:33;99744.59;;;34.52;28.00
58757;BME280;44527;47.460;19.016;2023-07-20T08:40:40;99738.59;;;33.89;27.94
58757;BME280;44527;47.460;19.016;2023-07-20T08:43:46;99730.69;;;33.93;28.22
58757;BME280;44527;47.460;19.016;2023-07-20T08:46:49;99755.78;;;33.32;28.97
58757;BME280;44527;47.460;19.016;2023-07-20T08:49:54;99737.41;;;33.59;29.09
58757;BME280;44527;47.460;19.016;2023-07-20T08:52:59;99751.66;;;33.24;29.02
58757;BME280;44527;47.460;19.016;2023-07-20T08:56:02;99753.19;;;32.57;29.29
58757;BME280;44527;47.460;19.016;2023-07-20T08:59:07;99746.41;;;32.00;31.25
58757;BME280;44527;47.460;19.016;2023-07-20T09:02:14;99761.25;;;31.05;32.12
58757;BME280;44527;47.460;19.016;2023-07-20T09:05:24;99766.44;;;30.39;32.67
58757;BME280;44527;47.460;19.016;2023-07-20T09:08:29;99767.69;;;29.74;33.51
58757;BME280;44527;47.460;19.016;2023-07-20T09:11:33;99774.53;;;29.65;33.69
58757;BME280;44527;47.460;19.016;2023-07-20T09:14:37;99774.53;;;29.93;33.37
58757;BME280;44527;47.460;19.016;2023-07-20T09:17:46;99786.31;;;30.28;33.19
58757;BME280;44527;47.460;19.016;2023-07-20T09:20:50;99776.44;;;30.72;33.20
58757;BME280;44527;47.460;19.016;2023-07-20T09:23:56;99779.69;;;30.86;32.08
58757;BME280;44527;47.460;19.016;2023-07-20T09:27:01;99782.25;;;31.14;32.19
58757;BME280;44527;47.460;19.016;2023-07-20T09:30:07;99775.34;;;31.68;32.67
58757;BME280;44527;47.460;19.016;2023-07-20T09:33:18;99777.91;;;32.01;31.49
58757;BME280;44527;47.460;19.016;2023-07-20T09:36:26;99771.44;;;32.08;30.41
58757;BME280;44527;47.460;19.016;2023-07-20T09:39:31;99771.63;;;32.28;29.95
58757;BME280;44527;47.460;19.016;2023-07-20T09:42:35;99781.13;;;32.25;30.15
58757;BME280;44527;47.460;19.016;2023-07-20T09:45:40;99778.22;;;31.17;31.31
58757;BME280;44527;47.460;19.016;2023-07-20T09:48:53;99768.22;;;31.62;31.18
58757;BME280;44527;47.460;19.016;2023-07-20T09:51:59;99780.97;;;31.61;31.24
58757;BME280;44527;47.460;19.016;2023-07-20T09:55:03;99781.22;;;31.37;31.77
58757;BME280;44527;47.460;19.016;2023-07-20T09:58:06;99771.91;;;31.99;30.65
58757;BME280;44527;47.460;19.016;2023-07-20T10:01:11;99771.84;;;32.21;30.12
58757;BME280;44527;47.460;19.016;2023-07-20T10:04:18;99785.13;;;31.91;30.92
58757;BME280;44527;47.460;19.016;2023-07-20T10:07:24;99782.09;;;31.87;30.38
58757;BME280;44527;47.460;19.016;2023-07-20T10:10:33;99786.84;;;31.75;30.49
58757;BME280;44527;47.460;19.016;2023-07-20T10:13:38;99792.63;;;31.84;31.07
58757;BME280;44527;47.460;19.016;2023-07-20T10:16:49;99802.66;;;32.64;30.19
58757;BME280;44527;47.460;19.016;2023-07-20T10:19:56;99804.09;;;32.77;29.25
58757;BME280;44527;47.460;19.016;2023-07-20T10:23:00;99792.28;;;32.29;30.46
58757;BME280;44527;47.460;19.016;2023-07-20T10:26:04;99802.59;;;32.00;30.56
58757;BME280;44527;47.460;19.016;2023-07-20T10:29:07;99800.31;;;31.92;31.76
58757;BME280;44527;47.460;19.016;2023-07-20T10:32:11;99802.03;;;31.98;31.85
58757;BME280;44527;47.460;19.016;2023-07-20T10:35:16;99806.25;;;32.75;31.01
58757;BME280;44527;47.460;19.016;2023-07-20T10:38:19;99792.44;;;32.44;31.06
58757;BME280;44527;47.460;19.016;2023-07-20T10:41:28;99803.25;;;32.71;31.65
58757;BME280;44527;47.460;19.016;2023-07-20T10:44:30;99796.84;;;32.50;31.33
58757;BME280;44527;47.460;19.016;2023-07-20T10:47:45;99796.22;;;32.76;30.74
58757;BME280;44527;47.460;19.016;2023-07-20T10:51:13;99799.53;;;32.50;31.16
58757;BME280;44527;47.460;19.016;2023-07-20T10:57:30;99790.19;;;32.68;31.63
58757;BME280;44527;47.460;19.016;2023-07-20T11:00:34;99797.75;;;32.99;31.26
58757;BME280;44527;47.460;19.016;2023-07-20T11:03:38;99794.38;;;33.24;30.99
58757;BME280;44527;47.460;19.016;2023-07-20T11:06:55;99801.00;;;33.48;30.11
58757;BME280;44527;47.460;19.016;2023-07-20T11:10:12;99795.69;;;33.16;29.52
58757;BME280;44527;47.460;19.016;2023-07-20T11:13:24;99794.13;;;32.50;30.75
58757;BME280;44527;47.460;19.016;2023-07-20T11:19:36;99781.75;;;32.33;30.59
58757;BME280;44527;47.460;19.016;2023-07-20T11:22:43;99782.78;;;32.32;30.55
58757;BME280;44527;47.460;19.016;2023-07-20T11:25:59;99782.13;;;32.19;30.65
58757;BME280;44527;47.460;19.016;2023-07-20T11:29:03;99770.19;;;32.47;30.88
58757;BME280;44527;47.460;19.016;2023-07-20T11:32:23;99779.69;;;32.45;30.10
58757;BME280;44527;47.460;19.016;2023-07-20T11:35:26;99765.13;;;32.29;29.59
58757;BME280;44527;47.460;19.016;2023-07-20T11:38:29;99785.31;;;31.84;29.91
58757;BME280;44527;47.460;19.016;2023-07-20T11:41:31;99780.59;;;31.52;30.50
58757;BME280;44527;47.460;19.016;2023-07-20T11:44:35;99779.78;;;31.52;30.79
58757;BME280;44527;47.460;19.016;2023-07-20T11:47:41;99781.34;;;31.48;31.58
58757;BME280;44527;47.460;19.016;2023-07-20T11:50:46;99788.28;;;31.39;30.48
58757;BME280;44527;47.460;19.016;2023-07-20T11:53:49;99784.75;;;30.82;31.53
58757;BME280;44527;47.460;19.016;2023-07-20T11:56:55;99783.38;;;31.19;31.12
58757;BME280;44527;47.460;19.016;2023-07-20T12:00:02;99776.78;;;30.76;31.25
58757;BME280;44527;47.460;19.016;2023-07-20T12:03:13;99767.94;;;31.19;31.35
58757;BME280;44527;47.460;19.016;2023-07-20T12:06:16;99772.94;;;31.49;31.53
58757;BME280;44527;47.460;19.016;2023-07-20T12:09:19;99766.22;;;31.52;30.97
58757;BME280;44527;47.460;19.016;2023-07-20T12:12:21;99766.69;;;31.71;30.30
58757;BME280;44527;47.460;19.016;2023-07-20T12:15:27;99761.16;;;31.61;31.29
58757;BME280;44527;47.460;19.016;2023-07-20T12:18:35;99768.31;;;31.45;29.86
58757;BME280;44527;47.460;19.016;2023-07-20T12:21:40;99755.13;;;31.53;30.67
58757;BME280;44527;47.460;19.016;2023-07-20T12:24:44;99749.06;;;31.46;30.28
58757;BME280;44527;47.460;19.016;2023-07-20T12:27:48;99760.56;;;31.14;30.51
58757;BME280;44527;47.460;19.016;2023-07-20T12:30:51;99755.53;;;30.84;31.06
58757;BME280;44527;47.460;19.016;2023-07-20T12:33:59;99745.56;;;30.73;32.25
58757;BME280;44527;47.460;19.016;2023-07-20T12:37:03;99751.75;;;30.68;31.20
58757;BME280;44527;47.460;19.016;2023-07-20T12:40:06;99736.56;;;30.84;31.67
58757;BME280;44527;47.460;19.016;2023-07-20T12:43:13;99750.47;;;31.10;30.99
58757;BME280;44527;47.460;19.016;2023-07-20T12:46:16;99746.00;;;31.21;29.58
58757;BME280;44527;47.460;19.016;2023-07-20T12:49:18;99752.75;;;31.18;29.10
58757;BME280;44527;47.460;19.016;2023-07-20T12:52:21;99749.09;;;31.29;29.08
58757;BME280;44527;47.460;19.016;2023-07-20T12:55:24;99750.56;;;31.37;28.86
58757;BME280;44527;47.460;19.016;2023-07-20T12:58:27;99741.63;;;31.36;28.98
58757;BME280;44527;47.460;19.016;2023-07-20T13:01:30;99748.13;;;31.35;28.93
58757;BME280;44527;47.460;19.016;2023-07-20T13:04:33;99746.47;;;31.56;28.15
58757;BME280;44527;47.460;19.016;2023-07-20T13:07:37;99743.31;;;31.43;27.89
58757;BME280;44527;47.460;19.016;2023-07-20T13:10:43;99748.91;;;31.14;28.81
58757;BME280;44527;47.460;19.016;2023-07-20T13:13:46;99751.94;;;31.18;28.98
58757;BME280;44527;47.460;19.016;2023-07-20T13:16:48;99755.72;;;31.17;29.07
58757;BME280;44527;47.460;19.016;2023-07-20T13:19:51;99745.31;;;30.91;29.49
58757;BME280;44527;47.460;19.016;2023-07-20T13:22:54;99753.78;;;31.34;28.94
58757;BME280;44527;47.460;19.016;2023-07-20T13:25:56;99751.66;;;31.19;29.05
58757;BME280;44527;47.460;19.016;2023-07-20T13:28:59;99753.66;;;31.07;28.77
58757;BME280;44527;47.460;19.016;2023-07-20T13:32:02;99745.56;;;30.73;29.42
58757;BME280;44527;47.460;19.016;2023-07-20T13:35:06;99734.84;;;30.78;30.09
58757;BME280;44527;47.460;19.016;2023-07-20T13:38:09;99735.50;;;30.52;29.98
58757;BME280;44527;47.460;19.016;2023-07-20T13:41:11;99737.16;;;30.53;29.72
58757;BME280;44527;47.460;19.016;2023-07-20T13:44:14;99737.31;;;30.63;28.81
58757;BME280;44527;47.460;19.016;2023-07-20T13:47:18;99742.63;;;30.58;29.47
58757;BME280;44527;47.460;19.016;2023-07-20T13:50:23;99739.63;;;30.37;29.10
58757;BME280;44527;47.460;19.016;2023-07-20T13:53:41;99744.56;;;29.95;29.56
58757;BME280;44527;47.460;19.016;2023-07-20T13:56:47;99736.94;;;30.09;30.04
58757;BME280;44527;47.460;19.016;2023-07-20T13:59:49;99738.66;;;30.15;30.24
58757;BME280;44527;47.460;19.016;2023-07-20T14:02:53;99734.28;;;30.26;30.26
58757;BME280;44527;47.460;19.016;2023-07-20T14:05:59;99732.41;;;30.26;30.04
58757;BME280;44527;47.460;19.016;2023-07-20T14:09:04;99735.44;;;30.30;30.57
58757;BME280;44527;47.460;19.016;2023-07-20T14:12:09;99742.31;;;30.54;30.34
58757;BME280;44527;47.460;19.016;2023-07-20T14:15:15;99739.94;;;30.58;29.69
58757;BME280;44527;47.460;19.016;2023-07-20T14:18:19;99732.16;;;30.61;29.82
58757;BME280;44527;47.460;19.016;2023-07-20T14:21:21;99731.75;;;30.53;30.61
58757;BME280;44527;47.460;19.016;2023-07-20T14:24:27;99730.25;;;30.45;30.04
58757;BME280;44527;47.460;19.016;2023-07-20T14:27:29;99721.00;;;30.41;30.92
58757;BME280;44527;47.460;19.016;2023-07-20T14:30:32;99722.81;;;30.35;30.59
58757;BME280;44527;47.460;19.016;2023-07-20T14:33:34;99725.50;;;30.35;29.52
58757;BME280;44527;47.460;19.016;2023-07-20T14:36:37;99722.81;;;30.35;30.59
58757;BME280;44527;47.460;19.016;2023-07-20T14:39:40;99725.78;;;30.34;30.80
58757;BME280;44527;47.460;19.016;2023-07-20T14:42:43;99727.13;;;30.19;30.94
58757;BME280;44527;47.460;19.016;2023-07-20T14:45:45;99727.59;;;30.16;30.56
58757;BME280;44527;47.460;19.016;2023-07-20T14:48:47;99731.63;;;29.97;30.52
58757;BME280;44527;47.460;19.016;2023-07-20T14:51:50;99730.97;;;29.78;31.03
58757;BME280;44527;47.460;19.016;2023-07-20T14:54:53;99735.50;;;29.72;31.28
58757;BME280;44527;47.460;19.016;2023-07-20T14:57:56;99742.72;;;29.84;30.76
58757;BME280;44527;47.460;19.016;2023-07-20T15:00:59;99726.81;;;29.87;30.77
58757;BME280;44527;47.460;19.016;2023-07-20T15:04:01;99729.63;;;29.92;31.32
58757;BME280;44527;47.460;19.016;2023-07-20T15:07:04;99739.88;;;29.62;31.21
58757;BME280;44527;47.460;19.016;2023-07-20T15:10:07;99737.44;;;29.48;30.88
58757;BME280;44527;47.460;19.016;2023-07-20T15:13:09;99732.69;;;29.55;30.67
58757;BME280;44527;47.460;19.016;2023-07-20T15:16:12;99744.22;;;29.63;31.02
58757;BME280;44527;47.460;19.016;2023-07-20T15:19:14;99730.94;;;29.61;31.10
58757;BME280;44527;47.460;19.016;2023-07-20T15:22:18;99732.69;;;29.55;31.07
58757;BME280;44527;47.460;19.016;2023-07-20T15:25:21;99733.31;;;29.46;30.71
58757;BME280;44527;47.460;19.016;2023-07-20T15:28:24;99722.06;;;29.37;30.82
58757;BME280;44527;47.460;19.016;2023-07-20T15:31:27;99724.91;;;29.30;31.35
58757;BME280;44527;47.460;19.016;2023-07-20T15:34:32;99721.72;;;29.34;30.99
58757;BME280;44527;47.460;19.016;2023-07-20T15:37:35;99724.31;;;29.28;31.36
58757;BME280;44527;47.460;19.016;2023-07-20T15:40:42;99732.44;;;29.17;32.00
58757;BME280;44527;47.460;19.016;2023-07-20T15:43:47;99729.03;;;29.21;31.86
58757;BME280;44527;47.460;19.016;2023-07-20T15:46:50;99741.41;;;29.17;31.83
58757;BME280;44527;47.460;19.016;2023-07-20T15:49:53;99742.91;;;29.13;32.18
58757;BME280;44527;47.460;19.016;2023-07-20T15:52:56;99747.50;;;29.13;31.73
58757;BME280;44527;47.460;19.016;2023-07-20T15:55:59;99732.66;;;29.27;32.13
58757;BME280;44527;47.460;19.016;2023-07-20T15:59:04;99733.16;;;29.24;31.72
58757;BME280;44527;47.460;19.016;2023-07-20T16:02:07;99741.87;;;29.14;30.56
58757;BME280;44527;47.460;19.016;2023-07-20T16:05:09;99749.00;;;28.97;30.54
58757;BME280;44527;47.460;19.016;2023-07-20T16:08:15;99746.91;;;28.87;30.92
58757;BME280;44527;47.460;19.016;2023-07-20T16:11:20;99745.97;;;28.70;31.14
58757;BME280;44527;47.460;19.016;2023-07-20T16:14:28;99747.38;;;28.72;31.70
58757;BME280;44527;47.460;19.016;2023-07-20T16:17:50;99745.72;;;28.71;31.64
58757;BME280;44527;47.460;19.016;2023-07-20T16:20:54;99749.13;;;28.67;31.86
58757;BME280;44527;47.460;19.016;2023-07-20T16:23:56;99739.03;;;28.62;32.50